sensor_id;sensor_type;location;lat;lon;timestamp;temperature;humidity
55016;DHT22;40919;43.236;21.590;2023-07-13T00:00:35;640.10;2432.00
55016;DHT22;40919;43.236;21.590;2023-07-13T00:03:02;640.10;2432.00
55016;DHT22;40919;43.236;21.590;2023-07-13T00:05:28;640.20;2432.00
55016;DHT22;40919;43.236;21.590;2023-07-13T00:07:54;640.30;2432.00
55016;DHT22;40919;43.236;21.590;2023-07-13T00:10:21;615.30;2432.00
55016;DHT22;40919;43.236;21.590;2023-07-13T00:12:47;640.20;2432.00
55016;DHT22;40919;43.236;21.590;2023-07-13T00:15:23;640.20;2432.00
55016;DHT22;40919;43.236;21.590;2023-07-13T00:17:50;640.10;2432.00
55016;DHT22;40919;43.236;21.590;2023-07-13T00:20:16;640.00;2432.00
55016;DHT22;40919;43.236;21.590;2023-07-13T00:22:42;640.10;2432.00
55016;DHT22;40919;43.236;21.590;2023-07-13T00:25:10;640.10;2432.00
55016;DHT22;40919;43.236;21.590;2023-07-13T00:27:37;640.00;2432.00
55016;DHT22;40919;43.236;21.590;2023-07-13T00:30:03;615.10;2432.00
55016;DHT22;40919;43.236;21.590;2023-07-13T00:32:29;615.00;2432.00
55016;DHT22;40919;43.236;21.590;2023-07-13T00:34:55;615.00;2432.00
55016;DHT22;40919;43.236;21.590;2023-07-13T00:37:21;615.00;2432.00
55016;DHT22;40919;43.236;21.590;2023-07-13T00:39:47;615.10;2432.00
55016;DHT22;40919;43.236;21.590;2023-07-13T00:42:14;615.20;2432.00
55016;DHT22;40919;43.236;21.590;2023-07-13T00:44:40;615.00;2432.00
55016;DHT22;40919;43.236;21.590;2023-07-13T00:47:06;615.00;2432.00
55016;DHT22;40919;43.236;21.590;2023-07-13T00:49:33;615.00;2432.00
55016;DHT22;40919;43.236;21.590;2023-07-13T00:52:05;615.10;2432.00
55016;DHT22;40919;43.236;21.590;2023-07-13T00:54:43;615.10;2432.00
55016;DHT22;40919;43.236;21.590;2023-07-13T00:57:12;615.10;2432.00
55016;DHT22;40919;43.236;21.590;2023-07-13T00:59:42;615.00;2432.00
55016;DHT22;40919;43.236;21.590;2023-07-13T01:02:09;615.00;2432.00
55016;DHT22;40919;43.236;21.590;2023-07-13T01:04:35;614.70;2432.00
55016;DHT22;40919;43.236;21.590;2023-07-13T01:07:01;614.70;2432.00
55016;DHT22;40919;43.236;21.590;2023-07-13T01:09:27;614.80;2432.00
55016;DHT22;40919;43.236;21.590;2023-07-13T01:11:53;614.80;2432.00
55016;DHT22;40919;43.236;21.590;2023-07-13T01:14:19;614.80;2432.00
55016;DHT22;40919;43.236;21.590;2023-07-13T01:16:46;614.80;2432.00
55016;DHT22;40919;43.236;21.590;2023-07-13T01:19:36;614.80;2432.00
55016;DHT22;40919;43.236;21.590;2023-07-13T01:22:12;614.70;2432.00
55016;DHT22;40919;43.236;21.590;2023-07-13T01:24:41;614.80;2432.00
55016;DHT22;40919;43.236;21.590;2023-07-13T01:27:09;614.80;2432.00
55016;DHT22;40919;43.236;21.590;2023-07-13T01:29:39;614.80;2432.00
55016;DHT22;40919;43.236;21.590;2023-07-13T01:32:13;614.80;2432.00
55016;DHT22;40919;43.236;21.590;2023-07-13T01:34:39;614.80;2432.00
55016;DHT22;40919;43.236;21.590;2023-07-13T01:37:09;614.70;2432.00
55016;DHT22;40919;43.236;21.590;2023-07-13T01:39:35;614.60;2432.00
55016;DHT22;40919;43.236;21.590;2023-07-13T01:42:01;614.60;2432.00
55016;DHT22;40919;43.236;21.590;2023-07-13T01:44:27;614.50;2432.00
55016;DHT22;40919;43.236;21.590;2023-07-13T01:46:52;614.50;2432.00
55016;DHT22;40919;43.236;21.590;2023-07-13T01:49:18;614.40;2432.00
55016;DHT22;40919;43.236;21.590;2023-07-13T01:51:44;589.70;2432.00
55016;DHT22;40919;43.236;21.590;2023-07-13T01:54:10;589.50;2432.00
55016;DHT22;40919;43.236;21.590;2023-07-13T01:56:36;589.50;2432.00
55016;DHT22;40919;43.236;21.590;2023-07-13T01:59:02;589.50;2432.00
55016;DHT22;40919;43.236;21.590;2023-07-13T02:01:27;589.50;2432.00
55016;DHT22;40919;43.236;21.590;2023-07-13T02:03:53;589.60;2432.00
55016;DHT22;40919;43.236;21.590;2023-07-13T02:06:19;589.60;2432.00
55016;DHT22;40919;43.236;21.590;2023-07-13T02:08:45;589.40;2432.00
55016;DHT22;40919;43.236;21.590;2023-07-13T02:11:11;589.50;2432.00
55016;DHT22;40919;43.236;21.590;2023-07-13T02:13:37;589.50;2432.00
55016;DHT22;40919;43.236;21.590;2023-07-13T02:16:03;589.70;2432.00
55016;DHT22;40919;43.236;21.590;2023-07-13T02:18:28;589.50;2432.00
55016;DHT22;40919;43.236;21.590;2023-07-13T02:20:54;589.50;2432.00
55016;DHT22;40919;43.236;21.590;2023-07-13T02:23:20;589.40;2432.00
55016;DHT22;40919;43.236;21.590;2023-07-13T02:25:46;589.50;2432.00
55016;DHT22;40919;43.236;21.590;2023-07-13T02:28:12;589.60;2432.00
55016;DHT22;40919;43.236;21.590;2023-07-13T02:30:37;589.70;2432.00
55016;DHT22;40919;43.236;21.590;2023-07-13T02:33:04;589.70;2432.00
55016;DHT22;40919;43.236;21.590;2023-07-13T02:35:30;589.70;2432.00
55016;DHT22;40919;43.236;21.590;2023-07-13T02:37:57;589.70;2432.00
55016;DHT22;40919;43.236;21.590;2023-07-13T02:40:22;589.70;2432.00
55016;DHT22;40919;43.236;21.590;2023-07-13T02:42:48;589.50;2432.00
55016;DHT22;40919;43.236;21.590;2023-07-13T02:45:14;589.60;2432.00
55016;DHT22;40919;43.236;21.590;2023-07-13T02:47:41;589.50;2432.00
55016;DHT22;40919;43.236;21.590;2023-07-13T02:50:08;589.50;2432.00
55016;DHT22;40919;43.236;21.590;2023-07-13T02:52:34;589.20;2432.00
55016;DHT22;40919;43.236;21.590;2023-07-13T02:55:00;589.30;2432.00
55016;DHT22;40919;43.236;21.590;2023-07-13T02:57:25;589.30;2432.00
55016;DHT22;40919;43.236;21.590;2023-07-13T02:59:52;589.20;2432.00
55016;DHT22;40919;43.236;21.590;2023-07-13T03:02:18;589.30;2432.00
55016;DHT22;40919;43.236;21.590;2023-07-13T03:04:44;589.20;2432.00
55016;DHT22;40919;43.236;21.590;2023-07-13T03:07:09;589.10;2432.00
55016;DHT22;40919;43.236;21.590;2023-07-13T03:09:35;589.10;2432.00
55016;DHT22;40919;43.236;21.590;2023-07-13T03:12:01;589.10;2432.00
55016;DHT22;40919;43.236;21.590;2023-07-13T03:14:28;589.10;2432.00
55016;DHT22;40919;43.236;21.590;2023-07-13T03:16:54;589.30;2432.00
55016;DHT22;40919;43.236;21.590;2023-07-13T03:19:20;589.00;2432.00
55016;DHT22;40919;43.236;21.590;2023-07-13T03:21:46;589.10;2432.00
55016;DHT22;40919;43.236;21.590;2023-07-13T03:24:12;589.10;2432.00
55016;DHT22;40919;43.236;21.590;2023-07-13T03:26:38;589.00;2432.00
55016;DHT22;40919;43.236;21.590;2023-07-13T03:29:04;564.10;2432.00
55016;DHT22;40919;43.236;21.590;2023-07-13T03:31:32;588.90;2432.00
55016;DHT22;40919;43.236;21.590;2023-07-13T03:33:58;564.10;2432.00
55016;DHT22;40919;43.236;21.590;2023-07-13T03:36:27;564.00;2432.00
55016;DHT22;40919;43.236;21.590;2023-07-13T03:38:56;564.10;2432.00
55016;DHT22;40919;43.236;21.590;2023-07-13T03:41:22;563.90;2432.00
55016;DHT22;40919;43.236;21.590;2023-07-13T03:43:49;563.80;2432.00
55016;DHT22;40919;43.236;21.590;2023-07-13T03:46:15;563.80;2432.00
55016;DHT22;40919;43.236;21.590;2023-07-13T03:48:43;563.70;2432.00
55016;DHT22;40919;43.236;21.590;2023-07-13T03:51:11;563.80;2432.00
55016;DHT22;40919;43.236;21.590;2023-07-13T03:53:40;563.80;2432.00
55016;DHT22;40919;43.236;21.590;2023-07-13T03:56:06;564.00;2432.00
55016;DHT22;40919;43.236;21.590;2023-07-13T03:58:38;564.00;2432.00
55016;DHT22;40919;43.236;21.590;2023-07-13T04:01:05;564.10;2432.00
55016;DHT22;40919;43.236;21.590;2023-07-13T04:03:32;564.00;2432.00
55016;DHT22;40919;43.236;21.590;2023-07-13T04:06:03;563.90;2432.00
55016;DHT22;40919;43.236;21.590;2023-07-13T04:08:32;563.70;2432.00
55016;DHT22;40919;43.236;21.590;2023-07-13T04:10:59;563.80;2432.00
55016;DHT22;40919;43.236;21.590;2023-07-13T04:13:25;563.80;2432.00
55016;DHT22;40919;43.236;21.590;2023-07-13T04:15:52;563.80;2432.00
55016;DHT22;40919;43.236;21.590;2023-07-13T04:18:18;563.80;2432.00
55016;DHT22;40919;43.236;21.590;2023-07-13T04:20:46;563.60;2432.00
55016;DHT22;40919;43.236;21.590;2023-07-13T04:23:12;563.60;2432.00
55016;DHT22;40919;43.236;21.590;2023-07-13T04:25:38;563.80;2432.00
55016;DHT22;40919;43.236;21.590;2023-07-13T04:28:04;563.70;2432.00
55016;DHT22;40919;43.236;21.590;2023-07-13T04:30:31;563.60;2432.00
55016;DHT22;40919;43.236;21.590;2023-07-13T04:32:57;563.80;2432.00
55016;DHT22;40919;43.236;21.590;2023-07-13T04:35:22;563.90;2432.00
55016;DHT22;40919;43.236;21.590;2023-07-13T04:37:49;564.10;2432.00
55016;DHT22;40919;43.236;21.590;2023-07-13T04:40:19;588.80;2432.00
55016;DHT22;40919;43.236;21.590;2023-07-13T04:42:46;588.90;2432.00
55016;DHT22;40919;43.236;21.590;2023-07-13T04:45:13;588.90;2432.00
55016;DHT22;40919;43.236;21.590;2023-07-13T04:47:40;588.90;2432.00
55016;DHT22;40919;43.236;21.590;2023-07-13T04:50:06;588.80;2432.00
55016;DHT22;40919;43.236;21.590;2023-07-13T04:52:32;589.00;2432.00
55016;DHT22;40919;43.236;21.590;2023-07-13T04:54:59;589.30;2432.00
55016;DHT22;40919;43.236;21.590;2023-07-13T04:57:25;589.40;2432.00
55016;DHT22;40919;43.236;21.590;2023-07-13T04:59:52;589.40;2432.00
55016;DHT22;40919;43.236;21.590;2023-07-13T05:02:18;589.60;2432.00
55016;DHT22;40919;43.236;21.590;2023-07-13T05:04:46;589.60;2432.00
55016;DHT22;40919;43.236;21.590;2023-07-13T05:07:13;589.50;2432.00
55016;DHT22;40919;43.236;21.590;2023-07-13T05:09:39;589.60;2432.00
55016;DHT22;40919;43.236;21.590;2023-07-13T05:12:08;589.40;2432.00
55016;DHT22;40919;43.236;21.590;2023-07-13T05:14:34;589.40;2432.00
55016;DHT22;40919;43.236;21.590;2023-07-13T05:16:59;589.60;2432.00
55016;DHT22;40919;43.236;21.590;2023-07-13T05:19:26;589.70;2432.00
55016;DHT22;40919;43.236;21.590;2023-07-13T05:21:52;614.50;2432.00
55016;DHT22;40919;43.236;21.590;2023-07-13T05:24:18;614.60;2432.00
55016;DHT22;40919;43.236;21.590;2023-07-13T05:26:44;614.60;2432.00
55016;DHT22;40919;43.236;21.590;2023-07-13T05:29:10;614.60;2432.00
55016;DHT22;40919;43.236;21.590;2023-07-13T05:31:36;614.60;2432.00
55016;DHT22;40919;43.236;21.590;2023-07-13T05:34:02;614.80;2432.00
55016;DHT22;40919;43.236;21.590;2023-07-13T05:36:28;614.80;2432.00
55016;DHT22;40919;43.236;21.590;2023-07-13T05:38:54;614.70;2432.00
55016;DHT22;40919;43.236;21.590;2023-07-13T05:41:20;614.60;2432.00
55016;DHT22;40919;43.236;21.590;2023-07-13T05:43:45;614.80;2432.00
55016;DHT22;40919;43.236;21.590;2023-07-13T05:46:11;614.80;2432.00
55016;DHT22;40919;43.236;21.590;2023-07-13T05:48:37;615.00;2432.00
55016;DHT22;40919;43.236;21.590;2023-07-13T05:51:03;615.10;2432.00
55016;DHT22;40919;43.236;21.590;2023-07-13T05:53:29;615.20;2432.00
55016;DHT22;40919;43.236;21.590;2023-07-13T05:55:55;615.30;2432.00
55016;DHT22;40919;43.236;21.590;2023-07-13T05:58:21;640.20;2432.00
55016;DHT22;40919;43.236;21.590;2023-07-13T06:00:48;640.50;2432.00
55016;DHT22;40919;43.236;21.590;2023-07-13T06:03:14;640.60;2432.00
55016;DHT22;40919;43.236;21.590;2023-07-13T06:05:41;640.90;2432.00
55016;DHT22;40919;43.236;21.590;2023-07-13T06:08:07;640.90;2432.00
55016;DHT22;40919;43.236;21.590;2023-07-13T06:10:37;640.90;2432.00
55016;DHT22;40919;43.236;21.590;2023-07-13T06:13:03;640.90;2432.00
55016;DHT22;40919;43.236;21.590;2023-07-13T06:15:28;640.90;2432.00
55016;DHT22;40919;43.236;21.590;2023-07-13T06:17:54;665.60;2432.00
55016;DHT22;40919;43.236;21.590;2023-07-13T06:20:20;640.90;2432.00
55016;DHT22;40919;43.236;21.590;2023-07-13T06:22:46;665.60;2432.00
55016;DHT22;40919;43.236;21.590;2023-07-13T06:25:12;665.60;2432.00
55016;DHT22;40919;43.236;21.590;2023-07-13T06:27:37;665.60;2432.00
55016;DHT22;40919;43.236;21.590;2023-07-13T06:30:03;665.70;2432.00
55016;DHT22;40919;43.236;21.590;2023-07-13T06:32:30;665.70;2432.00
55016;DHT22;40919;43.236;21.590;2023-07-13T06:34:55;666.00;2432.00
55016;DHT22;40919;43.236;21.590;2023-07-13T06:37:21;666.20;2432.00
55016;DHT22;40919;43.236;21.590;2023-07-13T06:39:47;666.40;2432.00
55016;DHT22;40919;43.236;21.590;2023-07-13T06:42:13;666.50;2432.00
55016;DHT22;40919;43.236;21.590;2023-07-13T06:44:38;691.20;2432.00
55016;DHT22;40919;43.236;21.590;2023-07-13T06:47:04;691.30;2432.00
55016;DHT22;40919;43.236;21.590;2023-07-13T06:49:30;691.70;2432.00
55016;DHT22;40919;43.236;21.590;2023-07-13T06:51:56;691.60;2432.00
55016;DHT22;40919;43.236;21.590;2023-07-13T06:54:22;691.70;2432.00
55016;DHT22;40919;43.236;21.590;2023-07-13T06:56:48;691.80;2432.00
55016;DHT22;40919;43.236;21.590;2023-07-13T06:59:13;691.90;2432.00
55016;DHT22;40919;43.236;21.590;2023-07-13T07:01:39;692.00;2432.00
55016;DHT22;40919;43.236;21.590;2023-07-13T07:04:05;716.80;2432.00
55016;DHT22;40919;43.236;21.590;2023-07-13T07:06:31;716.90;2432.00
55016;DHT22;40919;43.236;21.590;2023-07-13T07:08:56;716.90;2432.00
55016;DHT22;40919;43.236;21.590;2023-07-13T07:11:25;717.10;2432.00
55016;DHT22;40919;43.236;21.590;2023-07-13T07:13:52;717.00;2432.00
55016;DHT22;40919;43.236;21.590;2023-07-13T07:16:19;716.90;2432.00
55016;DHT22;40919;43.236;21.590;2023-07-13T07:18:45;717.10;2432.00
55016;DHT22;40919;43.236;21.590;2023-07-13T07:21:11;717.30;2432.00
55016;DHT22;40919;43.236;21.590;2023-07-13T07:23:37;717.40;2432.00
55016;DHT22;40919;43.236;21.590;2023-07-13T07:26:03;717.60;2432.00
55016;DHT22;40919;43.236;21.590;2023-07-13T07:28:29;742.70;2432.00
55016;DHT22;40919;43.236;21.590;2023-07-13T07:30:56;742.50;2432.00
55016;DHT22;40919;43.236;21.590;2023-07-13T07:33:23;742.50;2432.00
55016;DHT22;40919;43.236;21.590;2023-07-13T07:35:49;742.70;2432.00
55016;DHT22;40919;43.236;21.590;2023-07-13T07:38:15;742.80;2432.00
55016;DHT22;40919;43.236;21.590;2023-07-13T07:40:42;742.90;2432.00
55016;DHT22;40919;43.236;21.590;2023-07-13T07:43:10;742.90;2432.00
55016;DHT22;40919;43.236;21.590;2023-07-13T07:45:36;742.90;2432.00
55016;DHT22;40919;43.236;21.590;2023-07-13T07:48:04;743.00;2432.00
55016;DHT22;40919;43.236;21.590;2023-07-13T07:50:30;743.10;2432.00
55016;DHT22;40919;43.236;21.590;2023-07-13T07:52:56;743.30;2432.00
55016;DHT22;40919;43.236;21.590;2023-07-13T07:55:22;743.10;2432.00
55016;DHT22;40919;43.236;21.590;2023-07-13T07:57:49;743.20;2432.00
55016;DHT22;40919;43.236;21.590;2023-07-13T08:00:15;743.30;2432.00
55016;DHT22;40919;43.236;21.590;2023-07-13T08:02:42;768.10;2432.00
55016;DHT22;40919;43.236;21.590;2023-07-13T08:05:08;768.40;2432.00
55016;DHT22;40919;43.236;21.590;2023-07-13T08:07:35;768.50;2432.00
55016;DHT22;40919;43.236;21.590;2023-07-13T08:10:01;768.60;2432.00
55016;DHT22;40919;43.236;21.590;2023-07-13T08:12:26;768.30;2432.00
55016;DHT22;40919;43.236;21.590;2023-07-13T08:14:52;768.50;2432.00
55016;DHT22;40919;43.236;21.590;2023-07-13T08:17:24;768.80;2432.00
55016;DHT22;40919;43.236;21.590;2023-07-13T08:19:50;793.60;2432.00
55016;DHT22;40919;43.236;21.590;2023-07-13T08:22:16;793.80;2432.00
55016;DHT22;40919;43.236;21.590;2023-07-13T08:24:42;794.00;2432.00
55016;DHT22;40919;43.236;21.590;2023-07-13T08:27:09;794.00;2432.00
55016;DHT22;40919;43.236;21.590;2023-07-13T08:29:37;794.00;2406.40
55016;DHT22;40919;43.236;21.590;2023-07-13T08:32:04;794.00;2432.00
55016;DHT22;40919;43.236;21.590;2023-07-13T08:34:30;794.20;2432.00
55016;DHT22;40919;43.236;21.590;2023-07-13T08:36:56;794.20;2406.40
55016;DHT22;40919;43.236;21.590;2023-07-13T08:39:22;794.40;2406.40
55016;DHT22;40919;43.236;21.590;2023-07-13T08:41:51;793.90;2380.80
55016;DHT22;40919;43.236;21.590;2023-07-13T08:44:50;794.20;2380.80
55016;DHT22;40919;43.236;21.590;2023-07-13T08:47:15;794.40;2380.80
55016;DHT22;40919;43.236;21.590;2023-07-13T08:49:43;819.30;2355.20
55016;DHT22;40919;43.236;21.590;2023-07-13T08:52:33;819.30;2329.60
55016;DHT22;40919;43.236;21.590;2023-07-13T08:55:16;819.50;2329.60
55016;DHT22;40919;43.236;21.590;2023-07-13T08:57:45;819.60;2355.20
55016;DHT22;40919;43.236;21.590;2023-07-13T09:00:13;819.80;2304.00
55016;DHT22;40919;43.236;21.590;2023-07-13T09:03:00;819.60;2252.80
55016;DHT22;40919;43.236;21.590;2023-07-13T09:05:37;819.60;2252.80
55016;DHT22;40919;43.236;21.590;2023-07-13T09:14:43;844.80;2227.20
55016;DHT22;40919;43.236;21.590;2023-07-13T09:16:44;844.90;2201.60
55016;DHT22;40919;43.236;21.590;2023-07-13T09:19:17;844.80;2201.60
55016;DHT22;40919;43.236;21.590;2023-07-13T09:21:45;844.90;2176.00
55016;DHT22;40919;43.236;21.590;2023-07-13T09:24:41;845.20;2176.00
55016;DHT22;40919;43.236;21.590;2023-07-13T09:27:22;845.40;2124.80
55016;DHT22;40919;43.236;21.590;2023-07-13T09:29:57;845.40;2099.20
55016;DHT22;40919;43.236;21.590;2023-07-13T09:32:26;845.50;2099.20
55016;DHT22;40919;43.236;21.590;2023-07-13T09:34:54;845.70;2099.20
55016;DHT22;40919;43.236;21.590;2023-07-13T09:37:30;845.50;2099.20
55016;DHT22;40919;43.236;21.590;2023-07-13T09:39:59;870.40;2099.20
55016;DHT22;40919;43.236;21.590;2023-07-13T09:42:25;870.50;2099.20
55016;DHT22;40919;43.236;21.590;2023-07-13T09:44:54;845.70;2073.60
55016;DHT22;40919;43.236;21.590;2023-07-13T09:50:03;870.50;2022.40
55016;DHT22;40919;43.236;21.590;2023-07-13T09:52:49;870.60;2048.00
55016;DHT22;40919;43.236;21.590;2023-07-13T09:55:39;870.90;2022.40
55016;DHT22;40919;43.236;21.590;2023-07-13T09:58:17;870.90;1971.20
55016;DHT22;40919;43.236;21.590;2023-07-13T10:01:03;871.20;1996.80
55016;DHT22;40919;43.236;21.590;2023-07-13T10:03:32;871.30;1971.20
55016;DHT22;40919;43.236;21.590;2023-07-13T10:06:20;896.20;1945.60
55016;DHT22;40919;43.236;21.590;2023-07-13T10:08:49;896.40;1971.20
55016;DHT22;40919;43.236;21.590;2023-07-13T10:11:30;896.60;1920.00
55016;DHT22;40919;43.236;21.590;2023-07-13T10:13:59;896.80;1920.00
55016;DHT22;40919;43.236;21.590;2023-07-13T10:16:29;896.90;1920.00
55016;DHT22;40919;43.236;21.590;2023-07-13T10:19:19;896.90;1945.60
55016;DHT22;40919;43.236;21.590;2023-07-13T10:21:54;921.70;1971.20
55016;DHT22;40919;43.236;21.590;2023-07-13T10:24:31;921.70;1920.00
55016;DHT22;40919;43.236;21.590;2023-07-13T10:27:01;921.60;1945.60
55016;DHT22;40919;43.236;21.590;2023-07-13T10:29:35;921.80;1971.20
55016;DHT22;40919;43.236;21.590;2023-07-13T10:32:02;922.00;1971.20
55016;DHT22;40919;43.236;21.590;2023-07-13T10:34:28;922.20;1945.60
55016;DHT22;40919;43.236;21.590;2023-07-13T10:36:54;922.30;1894.40
55016;DHT22;40919;43.236;21.590;2023-07-13T10:39:26;922.50;1868.80
55016;DHT22;40919;43.236;21.590;2023-07-13T10:41:58;947.20;1843.20
55016;DHT22;40919;43.236;21.590;2023-07-13T10:44:29;922.50;1817.60
55016;DHT22;40919;43.236;21.590;2023-07-13T10:47:01;922.40;1843.20
55016;DHT22;40919;43.236;21.590;2023-07-13T10:49:29;947.20;1920.00
55016;DHT22;40919;43.236;21.590;2023-07-13T10:51:56;947.30;1868.80
55016;DHT22;40919;43.236;21.590;2023-07-13T10:54:33;947.40;1843.20
55016;DHT22;40919;43.236;21.590;2023-07-13T10:57:19;922.50;1868.80
55016;DHT22;40919;43.236;21.590;2023-07-13T10:59:48;922.50;1868.80
55016;DHT22;40919;43.236;21.590;2023-07-13T11:02:26;947.40;1843.20
55016;DHT22;40919;43.236;21.590;2023-07-13T11:04:54;947.50;1792.00
55016;DHT22;40919;43.236;21.590;2023-07-13T11:07:24;947.40;1792.00
55016;DHT22;40919;43.236;21.590;2023-07-13T11:10:04;947.90;1843.20
55016;DHT22;40919;43.236;21.590;2023-07-13T11:12:50;948.10;1792.00
55016;DHT22;40919;43.236;21.590;2023-07-13T11:15:43;948.10;1766.40
55016;DHT22;40919;43.236;21.590;2023-07-13T11:18:23;948.10;1740.80
55016;DHT22;40919;43.236;21.590;2023-07-13T11:20:50;973.10;1792.00
55016;DHT22;40919;43.236;21.590;2023-07-13T11:23:18;973.20;1792.00
55016;DHT22;40919;43.236;21.590;2023-07-13T11:25:44;973.20;1817.60
55016;DHT22;40919;43.236;21.590;2023-07-13T11:30:45;973.60;1766.40
55016;DHT22;40919;43.236;21.590;2023-07-13T11:36:12;973.50;1792.00
55016;DHT22;40919;43.236;21.590;2023-07-13T11:38:41;973.70;1715.20
55016;DHT22;40919;43.236;21.590;2023-07-13T11:41:16;973.60;1715.20
55016;DHT22;40919;43.236;21.590;2023-07-13T11:43:43;973.20;1715.20
55016;DHT22;40919;43.236;21.590;2023-07-13T11:46:19;973.40;1715.20
55016;DHT22;40919;43.236;21.590;2023-07-13T11:48:46;973.50;1715.20
55016;DHT22;40919;43.236;21.590;2023-07-13T11:53:47;973.70;1740.80
55016;DHT22;40919;43.236;21.590;2023-07-13T11:56:14;998.40;1689.60
55016;DHT22;40919;43.236;21.590;2023-07-13T11:58:40;973.70;1638.40
55016;DHT22;40919;43.236;21.590;2023-07-13T12:01:24;998.40;1689.60
55016;DHT22;40919;43.236;21.590;2023-07-13T12:03:51;998.40;1689.60
55016;DHT22;40919;43.236;21.590;2023-07-13T12:06:28;998.50;1715.20
55016;DHT22;40919;43.236;21.590;2023-07-13T12:09:02;973.70;1664.00
55016;DHT22;40919;43.236;21.590;2023-07-13T12:11:29;998.60;1689.60
55016;DHT22;40919;43.236;21.590;2023-07-13T12:13:56;998.80;1689.60
55016;DHT22;40919;43.236;21.590;2023-07-13T12:16:30;998.80;1664.00
55016;DHT22;40919;43.236;21.590;2023-07-13T12:18:59;999.20;1664.00
55016;DHT22;40919;43.236;21.590;2023-07-13T12:21:32;999.30;1689.60
55016;DHT22;40919;43.236;21.590;2023-07-13T12:23:58;999.30;1664.00
55016;DHT22;40919;43.236;21.590;2023-07-13T12:26:24;1024.10;1664.00
55016;DHT22;40919;43.236;21.590;2023-07-13T12:28:53;999.30;1638.40
55016;DHT22;40919;43.236;21.590;2023-07-13T12:31:37;1024.00;1664.00
55016;DHT22;40919;43.236;21.590;2023-07-13T12:34:09;1024.10;1664.00
55016;DHT22;40919;43.236;21.590;2023-07-13T12:36:46;1024.10;1638.40
55016;DHT22;40919;43.236;21.590;2023-07-13T12:39:28;1024.10;1612.80
55016;DHT22;40919;43.236;21.590;2023-07-13T12:47:47;1024.40;1638.40
55016;DHT22;40919;43.236;21.590;2023-07-13T12:50:19;1024.40;1612.80
55016;DHT22;40919;43.236;21.590;2023-07-13T12:52:51;1024.60;1587.20
55016;DHT22;40919;43.236;21.590;2023-07-13T12:55:19;1024.00;1612.80
55016;DHT22;40919;43.236;21.590;2023-07-13T12:57:49;1024.10;1612.80
55016;DHT22;40919;43.236;21.590;2023-07-13T13:00:32;999.20;1638.40
55016;DHT22;40919;43.236;21.590;2023-07-13T13:03:05;999.20;1612.80
55016;DHT22;40919;43.236;21.590;2023-07-13T13:05:32;999.30;1612.80
55016;DHT22;40919;43.236;21.590;2023-07-13T13:07:58;999.20;1612.80
55016;DHT22;40919;43.236;21.590;2023-07-13T13:10:24;999.30;1612.80
55016;DHT22;40919;43.236;21.590;2023-07-13T13:12:50;999.30;1612.80
55016;DHT22;40919;43.236;21.590;2023-07-13T13:15:16;999.30;1612.80
55016;DHT22;40919;43.236;21.590;2023-07-13T13:17:42;1024.10;1638.40
55016;DHT22;40919;43.236;21.590;2023-07-13T13:20:20;1024.00;1587.20
55016;DHT22;40919;43.236;21.590;2023-07-13T13:22:46;1024.00;1612.80
55016;DHT22;40919;43.236;21.590;2023-07-13T13:25:14;999.30;1612.80
55016;DHT22;40919;43.236;21.590;2023-07-13T13:27:44;1024.10;1638.40
55016;DHT22;40919;43.236;21.590;2023-07-13T13:30:16;1024.00;1612.80
55016;DHT22;40919;43.236;21.590;2023-07-13T13:32:45;1024.40;1638.40
55016;DHT22;40919;43.236;21.590;2023-07-13T13:35:18;1024.60;1638.40
55016;DHT22;40919;43.236;21.590;2023-07-13T13:37:46;1024.60;1587.20
55016;DHT22;40919;43.236;21.590;2023-07-13T13:40:18;1024.90;1612.80
55016;DHT22;40919;43.236;21.590;2023-07-13T13:42:44;1024.60;1561.60
55016;DHT22;40919;43.236;21.590;2023-07-13T13:45:11;1024.70;1587.20
55016;DHT22;40919;43.236;21.590;2023-07-13T13:47:39;1024.70;1561.60
55016;DHT22;40919;43.236;21.590;2023-07-13T13:50:17;1024.40;1587.20
55016;DHT22;40919;43.236;21.590;2023-07-13T13:52:45;1024.00;1561.60
55016;DHT22;40919;43.236;21.590;2023-07-13T13:55:14;1024.00;1587.20
55016;DHT22;40919;43.236;21.590;2023-07-13T13:57:41;1024.10;1587.20
55016;DHT22;40919;43.236;21.590;2023-07-13T14:00:10;999.30;1561.60
55016;DHT22;40919;43.236;21.590;2023-07-13T14:02:46;1024.10;1587.20
55016;DHT22;40919;43.236;21.590;2023-07-13T14:05:15;1024.10;1587.20
55016;DHT22;40919;43.236;21.590;2023-07-13T14:07:42;1024.30;1612.80
55016;DHT22;40919;43.236;21.590;2023-07-13T14:10:16;1024.00;1612.80
55016;DHT22;40919;43.236;21.590;2023-07-13T14:12:48;1024.40;1664.00
55016;DHT22;40919;43.236;21.590;2023-07-13T14:15:28;1024.40;1612.80
55016;DHT22;40919;43.236;21.590;2023-07-13T14:17:56;1024.30;1587.20
55016;DHT22;40919;43.236;21.590;2023-07-13T14:20:24;1024.30;1587.20
55016;DHT22;40919;43.236;21.590;2023-07-13T14:22:51;1024.00;1561.60
55016;DHT22;40919;43.236;21.590;2023-07-13T14:25:19;1024.00;1561.60
55016;DHT22;40919;43.236;21.590;2023-07-13T14:27:48;1024.10;1587.20
55016;DHT22;40919;43.236;21.590;2023-07-13T14:30:17;1024.00;1587.20
55016;DHT22;40919;43.236;21.590;2023-07-13T14:32:43;999.30;1561.60
55016;DHT22;40919;43.236;21.590;2023-07-13T14:35:18;1024.10;1561.60
55016;DHT22;40919;43.236;21.590;2023-07-13T14:37:45;1024.10;1561.60
55016;DHT22;40919;43.236;21.590;2023-07-13T14:40:13;998.60;1561.60
55016;DHT22;40919;43.236;21.590;2023-07-13T14:42:39;1024.00;1587.20
55016;DHT22;40919;43.236;21.590;2023-07-13T14:45:11;999.30;1561.60
55016;DHT22;40919;43.236;21.590;2023-07-13T14:47:37;999.00;1561.60
55016;DHT22;40919;43.236;21.590;2023-07-13T14:50:04;998.80;1561.60
55016;DHT22;40919;43.236;21.590;2023-07-13T14:52:30;998.70;1587.20
55016;DHT22;40919;43.236;21.590;2023-07-13T14:54:56;998.80;1587.20
55016;DHT22;40919;43.236;21.590;2023-07-13T14:57:22;998.70;1587.20
55016;DHT22;40919;43.236;21.590;2023-07-13T14:59:48;998.80;1587.20
55016;DHT22;40919;43.236;21.590;2023-07-13T15:02:29;973.70;1561.60
55016;DHT22;40919;43.236;21.590;2023-07-13T15:04:56;998.80;1587.20